Time;durP1;ratioP1;P1;durP2;ratioP2;P2;SDS_P1;SDS_P2;PMS_P1;PMS_P2;Temp;Humidity;BMP_temperature;BMP_pressure;BME280_temperature;BME280_humidity;BME280_pressure;Samples;Min_cycle;Max_cycle;Signal;HPM_P1;HPM_P2
2022/10/14 00:02:00;;;;;;;8.80;4.93;;;11.70;99.90;;;;;;5028658;28;20128;-76
2022/10/14 00:04:26;;;;;;;7.13;5.03;;;11.80;99.90;;;;;;5030012;28;20075;-76
2022/10/14 00:06:52;;;;;;;7.82;5.60;;;11.70;99.90;;;;;;5029992;28;20052;-76
2022/10/14 00:09:17;;;;;;;8.57;5.07;;;11.70;99.90;;;;;;5016156;28;20033;-76
2022/10/14 00:11:43;;;;;;;10.55;5.68;;;11.70;99.90;;;;;;5030137;28;20500;-76
2022/10/14 00:14:12;;;;;;;7.40;5.20;;;11.70;99.90;;;;;;5030405;28;20036;-79
2022/10/14 00:16:40;;;;;;;8.50;5.53;;;11.70;99.90;;;;;;5022916;28;20064;-80
2022/10/14 00:19:06;;;;;;;10.10;5.47;;;11.70;99.90;;;;;;5033979;28;20041;-79
2022/10/14 00:21:32;;;;;;;7.05;4.88;;;11.70;99.90;;;;;;5034282;28;20048;-79
2022/10/14 00:23:58;;;;;;;7.88;5.05;;;11.70;99.90;;;;;;5034335;28;20034;-78
2022/10/14 00:26:27;;;;;;;9.77;5.25;;;11.70;99.90;;;;;;5035335;28;20127;-80
2022/10/14 00:28:53;;;;;;;9.65;5.28;;;11.70;99.90;;;;;;5036384;28;20026;-80
2022/10/14 00:31:19;;;;;;;7.75;5.32;;;11.70;99.90;;;;;;5036241;28;20033;-79
2022/10/14 00:33:45;;;;;;;6.53;4.80;;;11.70;99.90;;;;;;5036381;28;20088;-79
2022/10/14 00:36:14;;;;;;;10.18;4.35;;;11.70;99.90;;;;;;5036036;28;20040;-79
2022/10/14 00:38:39;;;;;;;9.25;5.13;;;11.70;99.90;;;;;;5036308;28;20103;-80
2022/10/14 00:41:06;;;;;;;7.95;4.10;;;11.70;99.90;;;;;;5022639;28;20030;-79
2022/10/14 00:44:05;;;;;;;7.05;4.60;;;11.60;99.90;;;;;;5022441;28;20026;-80
2022/10/14 00:46:42;;;;;;;7.95;4.22;;;11.70;99.90;;;;;;5035590;28;20087;-79
2022/10/14 00:49:17;;;;;;;9.30;4.10;;;11.70;99.90;;;;;;5035918;28;20032;-79
2022/10/14 00:51:48;;;;;;;9.73;5.05;;;11.70;99.90;;;;;;5035827;28;20033;-79
2022/10/14 00:54:17;;;;;;;6.82;4.00;;;11.70;99.90;;;;;;5022187;28;20030;-79
2022/10/14 00:56:44;;;;;;;7.75;3.80;;;11.60;99.90;;;;;;5022979;28;20157;-79
2022/10/14 00:59:11;;;;;;;7.50;4.15;;;11.60;99.90;;;;;;5016103;28;20038;-79
2022/10/14 01:01:37;;;;;;;6.53;3.60;;;11.60;99.90;;;;;;5026959;28;20036;-79
2022/10/14 01:04:03;;;;;;;6.88;3.90;;;11.60;99.90;;;;;;5035524;28;20033;-79
2022/10/14 01:06:57;;;;;;;7.05;3.83;;;11.60;99.90;;;;;;5035562;28;20026;-79
2022/10/14 01:09:35;;;;;;;6.93;3.45;;;11.60;99.90;;;;;;5035476;28;20025;-79
2022/10/14 01:12:19;;;;;;;6.07;3.40;;;11.60;99.90;;;;;;5035692;28;20308;-79
2022/10/14 01:14:58;;;;;;;6.85;3.70;;;11.60;99.90;;;;;;5028262;28;20038;-80
2022/10/14 01:17:42;;;;;;;6.65;3.70;;;11.60;99.90;;;;;;5030256;28;20037;-80
2022/10/14 01:20:34;;;;;;;4.93;3.40;;;11.60;99.90;;;;;;5035082;28;20057;-80
2022/10/14 01:23:32;;;;;;;8.57;3.47;;;11.60;99.90;;;;;;5029985;28;20018;-80
2022/10/14 01:26:21;;;;;;;7.50;3.03;;;11.60;99.90;;;;;;5029417;28;20151;-80
2022/10/14 01:29:32;;;;;;;5.45;3.03;;;11.60;99.90;;;;;;5035221;28;20029;-79
2022/10/14 01:32:23;;;;;;;3.63;2.60;;;11.60;99.90;;;;;;5034054;28;20044;-80
2022/10/14 01:35:13;;;;;;;6.65;3.15;;;11.70;99.90;;;;;;5035205;28;20481;-80
2022/10/14 01:37:53;;;;;;;4.70;2.60;;;11.70;99.90;;;;;;5023688;28;20038;-80
2022/10/14 01:40:27;;;;;;;6.10;2.75;;;11.70;99.90;;;;;;5022786;28;20105;-80
2022/10/14 01:42:54;;;;;;;6.03;2.80;;;11.70;99.90;;;;;;5034050;28;20061;-80
2022/10/14 01:45:22;;;;;;;4.03;2.70;;;11.70;99.90;;;;;;5022001;28;20131;-80
2022/10/14 01:47:50;;;;;;;4.63;2.40;;;11.70;99.90;;;;;;5033838;28;20026;-80
2022/10/14 01:50:19;;;;;;;4.88;2.60;;;11.70;99.90;;;;;;5019335;28;20412;-80
2022/10/14 01:53:05;;;;;;;5.60;2.80;;;11.70;99.90;;;;;;5015318;28;20462;-80
2022/10/14 01:55:35;;;;;;;5.00;2.72;;;11.70;99.90;;;;;;5031486;28;20037;-80
2022/10/14 01:58:02;;;;;;;3.50;2.70;;;11.70;99.90;;;;;;5035107;28;20112;-80
2022/10/14 02:00:28;;;;;;;4.90;3.00;;;11.60;99.90;;;;;;5034520;28;20437;-80
2022/10/14 02:02:53;;;;;;;4.50;2.97;;;11.70;99.90;;;;;;5034694;28;20029;-80
2022/10/14 02:05:58;;;;;;;5.95;2.88;;;11.70;99.90;;;;;;5034690;28;20029;-80
2022/10/14 02:08:40;;;;;;;6.00;2.80;;;11.70;99.90;;;;;;5025682;28;20097;-80
2022/10/14 02:11:17;;;;;;;8.80;3.15;;;11.70;99.90;;;;;;5034422;28;20033;-79
2022/10/14 02:14:09;;;;;;;3.72;2.60;;;11.60;99.90;;;;;;5028374;28;20030;-80
2022/10/14 02:17:02;;;;;;;5.20;3.05;;;11.60;99.90;;;;;;5030169;28;20069;-79
2022/10/14 02:19:43;;;;;;;6.18;2.95;;;11.70;99.90;;;;;;5034601;28;20051;-79
2022/10/14 02:22:30;;;;;;;4.88;3.40;;;11.70;99.90;;;;;;5027330;28;20521;-79
2022/10/14 02:25:00;;;;;;;3.88;2.78;;;11.70;99.90;;;;;;5034301;28;20025;-79
2022/10/14 02:27:28;;;;;;;4.32;2.90;;;11.60;99.90;;;;;;5034027;28;20032;-79
2022/10/14 02:29:55;;;;;;;6.60;2.50;;;11.60;99.90;;;;;;5034359;28;20021;-79
2022/10/14 02:32:23;;;;;;;5.75;2.90;;;11.60;99.90;;;;;;5030329;28;20036;-80
2022/10/14 02:34:52;;;;;;;4.85;2.78;;;11.60;99.90;;;;;;5034594;28;20044;-79
2022/10/14 02:37:20;;;;;;;5.88;2.90;;;11.60;99.90;;;;;;5033149;28;20030;-80
2022/10/14 02:40:03;;;;;;;7.32;3.10;;;11.60;99.90;;;;;;5033552;28;20025;-79
2022/10/14 02:42:29;;;;;;;6.68;3.10;;;11.50;99.90;;;;;;5035355;28;20068;-79
2022/10/14 02:44:57;;;;;;;4.90;3.10;;;11.50;99.90;;;;;;5035328;28;20080;-79
2022/10/14 02:47:24;;;;;;;4.15;3.15;;;11.50;99.90;;;;;;5023868;28;20052;-79
2022/10/14 02:49:50;;;;;;;4.18;2.88;;;11.50;99.90;;;;;;5015834;28;20026;-79
2022/10/14 02:52:16;;;;;;;5.30;3.00;;;11.50;99.90;;;;;;5015269;28;20390;-79
2022/10/14 02:54:42;;;;;;;5.20;3.22;;;11.50;99.90;;;;;;5016035;28;20045;-79
2022/10/14 02:57:07;;;;;;;5.32;3.45;;;11.50;99.90;;;;;;5033770;28;20087;-79
2022/10/14 02:59:33;;;;;;;5.32;3.15;;;11.50;99.90;;;;;;5033935;28;20080;-79
2022/10/14 03:01:59;;;;;;;8.05;3.47;;;11.50;99.90;;;;;;5014451;28;20036;-79
2022/10/14 03:04:25;;;;;;;5.97;3.58;;;11.50;99.90;;;;;;5045793;28;20391;-79
2022/10/14 03:06:50;;;;;;;5.25;3.30;;;11.40;99.90;;;;;;5031018;28;20022;-79
2022/10/14 03:09:16;;;;;;;5.55;3.22;;;11.50;99.90;;;;;;5033573;28;20048;-79
2022/10/14 03:11:41;;;;;;;7.50;3.40;;;11.40;99.90;;;;;;5033349;28;20031;-79
2022/10/14 03:14:07;;;;;;;5.80;3.67;;;11.50;99.90;;;;;;5033345;28;20112;-79
2022/10/14 03:16:32;;;;;;;6.68;3.80;;;11.40;99.90;;;;;;5032944;28;20061;-79
2022/10/14 03:18:58;;;;;;;5.85;3.50;;;11.40;99.90;;;;;;5033116;28;20035;-80
2022/10/14 03:21:23;;;;;;;6.22;4.05;;;11.40;99.90;;;;;;5033271;28;20029;-79
2022/10/14 03:23:49;;;;;;;4.97;3.70;;;11.40;99.90;;;;;;5030870;28;20159;-79
2022/10/14 03:26:15;;;;;;;8.85;4.00;;;11.40;99.90;;;;;;5013300;28;20044;-80
2022/10/14 03:28:40;;;;;;;6.28;4.30;;;11.40;99.90;;;;;;5027038;28;20025;-79
2022/10/14 03:31:06;;;;;;;5.43;3.88;;;11.40;99.90;;;;;;5025369;28;20034;-80
2022/10/14 03:33:31;;;;;;;8.38;4.28;;;11.40;99.90;;;;;;5024901;28;20064;-80
2022/10/14 03:35:57;;;;;;;6.63;4.18;;;11.40;99.90;;;;;;5032518;28;20033;-80
2022/10/14 03:38:23;;;;;;;6.03;4.05;;;11.40;99.90;;;;;;5032941;28;20055;-80
2022/10/14 03:40:48;;;;;;;8.40;4.13;;;11.40;99.90;;;;;;5033015;28;20042;-79
2022/10/14 03:43:14;;;;;;;7.63;4.00;;;11.40;99.90;;;;;;5023578;28;20029;-80
2022/10/14 03:45:39;;;;;;;8.23;4.15;;;11.40;99.90;;;;;;5026903;28;20040;-80
2022/10/14 03:48:05;;;;;;;5.70;4.15;;;11.40;99.90;;;;;;5018440;28;20026;-79
2022/10/14 03:50:31;;;;;;;6.00;4.53;;;11.40;99.90;;;;;;5033014;28;20018;-80
2022/10/14 03:52:56;;;;;;;7.88;4.72;;;11.40;99.90;;;;;;5028855;28;20034;-80
2022/10/14 03:55:22;;;;;;;9.82;4.90;;;11.40;99.90;;;;;;5022914;28;20166;-80
2022/10/14 03:57:48;;;;;;;8.57;4.72;;;11.40;99.90;;;;;;5031208;28;20072;-79
2022/10/14 04:00:14;;;;;;;8.00;5.43;;;11.40;99.90;;;;;;5021123;28;20406;-80
2022/10/14 04:02:40;;;;;;;7.68;4.32;;;11.40;99.90;;;;;;5032729;28;20040;-79
2022/10/14 04:05:06;;;;;;;13.60;5.35;;;11.40;99.90;;;;;;5032634;28;20112;-80
2022/10/14 04:07:32;;;;;;;6.07;4.35;;;11.40;99.90;;;;;;5032755;28;20030;-79
2022/10/14 04:09:58;;;;;;;8.40;4.80;;;11.40;99.90;;;;;;5032696;28;20040;-80
2022/10/14 04:12:23;;;;;;;6.55;4.75;;;11.40;99.90;;;;;;5032711;28;20044;-79
2022/10/14 04:14:49;;;;;;;10.45;4.82;;;11.40;99.90;;;;;;5032409;28;20156;-79
2022/10/14 04:17:14;;;;;;;7.90;4.75;;;11.30;99.90;;;;;;5033083;28;20469;-79
2022/10/14 04:19:40;;;;;;;6.90;4.82;;;11.30;99.90;;;;;;5032879;28;20017;-79
2022/10/14 04:22:05;;;;;;;9.40;4.80;;;11.30;99.90;;;;;;5032655;28;20458;-79
2022/10/14 04:24:31;;;;;;;7.93;4.70;;;11.30;99.90;;;;;;5032767;28;20094;-79
2022/10/14 04:26:57;;;;;;;6.03;4.43;;;11.30;99.90;;;;;;5018962;28;20020;-79
2022/10/14 04:29:23;;;;;;;7.40;5.00;;;11.30;99.90;;;;;;5022429;28;20076;-79
2022/10/14 04:31:48;;;;;;;8.60;5.00;;;11.30;99.90;;;;;;5029096;28;20065;-79
2022/10/14 04:34:14;;;;;;;7.28;5.28;;;11.30;99.90;;;;;;5032618;28;20402;-80
2022/10/14 04:36:40;;;;;;;9.45;4.85;;;11.20;99.90;;;;;;5032790;28;20061;-80
2022/10/14 04:39:05;;;;;;;10.88;4.82;;;11.20;99.90;;;;;;5026510;28;20461;-79
2022/10/14 04:41:31;;;;;;;7.85;5.10;;;11.20;99.90;;;;;;5024788;28;20428;-79
2022/10/14 04:43:57;;;;;;;10.30;4.60;;;11.20;99.90;;;;;;5032427;28;20029;-79
2022/10/14 04:46:22;;;;;;;6.57;5.05;;;11.20;99.90;;;;;;5032381;28;20501;-79
2022/10/14 04:48:48;;;;;;;7.95;4.90;;;11.20;99.90;;;;;;5032797;28;20021;-79
2022/10/14 04:51:13;;;;;;;8.10;4.63;;;11.20;99.90;;;;;;5031833;28;20481;-78
2022/10/14 04:53:39;;;;;;;6.82;5.00;;;11.20;99.90;;;;;;5016279;28;20121;-77
2022/10/14 04:56:05;;;;;;;10.35;4.82;;;11.30;99.90;;;;;;5030303;28;20021;-78
2022/10/14 04:58:30;;;;;;;8.35;5.13;;;11.30;99.90;;;;;;5025280;28;20029;-78
2022/10/14 05:00:56;;;;;;;7.30;4.88;;;11.30;99.90;;;;;;5018955;28;20184;-78
2022/10/14 05:03:22;;;;;;;9.55;5.50;;;11.30;99.90;;;;;;5026498;28;20542;-78
2022/10/14 05:05:49;;;;;;;7.10;4.35;;;11.30;99.90;;;;;;5016597;28;20029;-78
2022/10/14 05:08:14;;;;;;;9.35;4.70;;;11.30;99.90;;;;;;5023344;28;20439;-78
2022/10/14 05:10:40;;;;;;;5.93;4.63;;;11.30;99.90;;;;;;5026824;28;20029;-78
2022/10/14 05:13:05;;;;;;;7.75;4.95;;;11.30;99.90;;;;;;5027539;28;20063;-77
2022/10/14 05:15:32;;;;;;;6.43;4.57;;;11.30;99.90;;;;;;5022515;28;20498;-78
2022/10/14 05:17:58;;;;;;;6.13;4.20;;;11.30;99.90;;;;;;5026629;28;20032;-78
2022/10/14 05:20:23;;;;;;;7.40;4.70;;;11.30;99.90;;;;;;5025661;28;20042;-78
2022/10/14 05:22:49;;;;;;;8.20;4.70;;;11.30;99.90;;;;;;5027296;28;20033;-78
2022/10/14 05:25:15;;;;;;;9.18;4.82;;;11.30;99.90;;;;;;5025404;28;20022;-78
2022/10/14 05:27:42;;;;;;;6.38;4.20;;;11.30;99.90;;;;;;5048488;28;20387;-78
2022/10/14 05:30:09;;;;;;;7.20;4.38;;;11.30;99.90;;;;;;5023067;28;20034;-78
2022/10/14 05:32:35;;;;;;;11.82;4.68;;;11.30;99.90;;;;;;5016769;28;20459;-78
2022/10/14 05:35:00;;;;;;;6.38;4.45;;;11.30;99.90;;;;;;5022867;28;20029;-78
2022/10/14 05:37:26;;;;;;;9.23;5.00;;;11.20;99.90;;;;;;5022161;28;20121;-78
2022/10/14 05:39:51;;;;;;;11.23;4.32;;;11.30;99.90;;;;;;5030949;28;20079;-78
2022/10/14 05:42:17;;;;;;;7.57;5.22;;;11.30;99.90;;;;;;5026333;28;20018;-78
2022/10/14 05:44:43;;;;;;;7.00;4.95;;;11.20;99.90;;;;;;5021310;28;20048;-78
2022/10/14 05:47:09;;;;;;;8.38;5.03;;;11.30;99.90;;;;;;5021817;28;20066;-78
2022/10/14 05:49:35;;;;;;;8.50;5.30;;;11.30;99.90;;;;;;5031021;28;20087;-78
2022/10/14 05:52:00;;;;;;;8.07;5.55;;;11.20;99.90;;;;;;5021275;28;20025;-78
2022/10/14 05:54:26;;;;;;;8.95;5.05;;;11.30;99.90;;;;;;5026170;28;20032;-78
2022/10/14 05:56:52;;;;;;;8.25;5.25;;;11.30;99.90;;;;;;5012143;28;20018;-79
2022/10/14 05:59:17;;;;;;;6.90;4.68;;;11.30;99.90;;;;;;5012115;28;20029;-79
2022/10/14 06:01:43;;;;;;;8.82;5.47;;;11.30;99.90;;;;;;5015389;28;20044;-79
2022/10/14 06:04:16;;;;;;;8.10;5.03;;;11.30;99.90;;;;;;5013529;28;20114;-79
2022/10/14 06:06:41;;;;;;;7.45;5.25;;;11.40;99.90;;;;;;5046541;28;20073;-79
2022/10/14 06:09:07;;;;;;;7.97;5.68;;;11.40;99.90;;;;;;5023607;28;20018;-79
2022/10/14 06:11:33;;;;;;;7.85;4.60;;;11.40;99.90;;;;;;5026476;28;20608;-79
2022/10/14 06:13:58;;;;;;;8.43;5.13;;;11.40;99.90;;;;;;5012709;28;20113;-79
2022/10/14 06:16:24;;;;;;;6.35;4.43;;;11.40;99.90;;;;;;5014528;28;20054;-79
2022/10/14 06:18:49;;;;;;;10.75;5.03;;;11.50;99.90;;;;;;5024572;28;20034;-79
2022/10/14 06:21:15;;;;;;;8.25;4.70;;;11.50;99.90;;;;;;5017818;28;20067;-79
2022/10/14 06:23:41;;;;;;;8.00;4.72;;;11.50;99.90;;;;;;5020109;28;20035;-79
2022/10/14 06:26:08;;;;;;;7.55;4.30;;;11.60;99.90;;;;;;5031759;28;20387;-79
2022/10/14 06:28:34;;;;;;;8.38;4.07;;;11.60;99.90;;;;;;5031135;28;20052;-79
2022/10/14 06:31:01;;;;;;;8.10;3.75;;;11.60;99.90;;;;;;5029939;28;20427;-79
2022/10/14 06:33:28;;;;;;;5.38;3.47;;;11.60;99.90;;;;;;5017634;28;20088;-79
2022/10/14 06:35:55;;;;;;;8.90;4.00;;;11.60;99.90;;;;;;5028945;28;20108;-79
2022/10/14 06:38:21;;;;;;;6.38;3.28;;;11.70;99.90;;;;;;5031082;28;20030;-79
2022/10/14 06:40:50;;;;;;;8.75;3.72;;;11.70;99.90;;;;;;5031065;28;20025;-79
2022/10/14 06:43:16;;;;;;;6.47;3.30;;;11.70;99.90;;;;;;5030641;28;20087;-79
2022/10/14 06:45:42;;;;;;;4.13;3.17;;;11.70;99.90;;;;;;5030700;28;20033;-79
2022/10/14 06:48:07;;;;;;;5.57;3.45;;;11.70;99.90;;;;;;5031055;28;20034;-79
2022/10/14 06:50:33;;;;;;;9.40;3.97;;;11.80;99.90;;;;;;5030922;28;20191;-79
2022/10/14 06:52:58;;;;;;;5.65;3.80;;;11.80;99.90;;;;;;5031007;28;20035;-79
2022/10/14 06:55:24;;;;;;;5.13;2.92;;;11.90;99.90;;;;;;5030758;28;20181;-78
2022/10/14 06:57:49;;;;;;;5.25;3.35;;;11.90;99.90;;;;;;5030819;28;20099;-79
2022/10/14 07:00:15;;;;;;;4.20;3.45;;;11.90;99.90;;;;;;5030653;28;20109;-79
2022/10/14 07:02:41;;;;;;;4.65;3.20;;;12.00;99.90;;;;;;5030397;28;20041;-79
2022/10/14 07:05:07;;;;;;;5.75;2.72;;;12.00;99.90;;;;;;5030873;28;20048;-79
2022/10/14 07:07:33;;;;;;;4.53;2.90;;;12.10;99.90;;;;;;5031184;28;20446;-79
2022/10/14 07:09:59;;;;;;;5.78;2.65;;;12.10;99.90;;;;;;5031225;28;20466;-79
2022/10/14 07:12:25;;;;;;;5.55;2.40;;;12.20;99.90;;;;;;5030950;28;20111;-79
2022/10/14 07:14:51;;;;;;;4.88;2.55;;;12.20;99.90;;;;;;5029754;28;20120;-78
2022/10/14 07:17:16;;;;;;;6.82;3.53;;;12.30;99.90;;;;;;5030271;28;20116;-79
2022/10/14 07:19:42;;;;;;;8.00;2.80;;;12.40;99.90;;;;;;5030184;28;20030;-79
2022/10/14 07:22:08;;;;;;;4.93;2.50;;;12.50;99.90;;;;;;5027822;28;20025;-79
2022/10/14 07:24:33;;;;;;;5.78;2.40;;;12.50;99.90;;;;;;5017938;28;20032;-79
2022/10/14 07:27:00;;;;;;;5.28;2.50;;;12.50;99.90;;;;;;5030280;28;20109;-79
2022/10/14 07:29:26;;;;;;;6.72;2.53;;;12.60;99.90;;;;;;5030323;28;20389;-79
2022/10/14 07:31:52;;;;;;;4.05;2.40;;;12.70;99.90;;;;;;5022502;28;20017;-79
2022/10/14 07:34:17;;;;;;;4.80;2.50;;;12.70;99.90;;;;;;5013138;28;20030;-79
2022/10/14 07:36:43;;;;;;;3.47;2.33;;;12.80;99.90;;;;;;5019002;28;20095;-79
2022/10/14 07:39:09;;;;;;;6.22;2.30;;;12.90;99.90;;;;;;5013785;28;20089;-79
2022/10/14 07:41:35;;;;;;;4.03;2.10;;;13.00;99.90;;;;;;5010525;28;20030;-79
2022/10/14 07:44:05;;;;;;;6.15;2.08;;;13.10;99.90;;;;;;5009701;28;20026;-79
2022/10/14 07:46:33;;;;;;;6.25;2.20;;;13.20;99.90;;;;;;5027511;28;20025;-79
2022/10/14 07:49:10;;;;;;;8.00;2.88;;;13.40;99.90;;;;;;5016638;28;20061;-79
2022/10/14 07:51:36;;;;;;;4.10;1.90;;;13.50;99.90;;;;;;5015153;28;20028;-80
2022/10/14 07:54:03;;;;;;;3.55;1.80;;;13.60;99.90;;;;;;5018654;28;20034;-79
2022/10/14 07:56:29;;;;;;;3.53;1.52;;;13.70;99.90;;;;;;5009935;28;20028;-79
2022/10/14 07:58:55;;;;;;;6.18;1.60;;;13.70;99.90;;;;;;5019316;28;20429;-79
2022/10/14 08:01:20;;;;;;;3.28;1.40;;;13.70;99.90;;;;;;5020243;28;20033;-79
2022/10/14 08:03:47;;;;;;;4.07;1.60;;;13.70;99.90;;;;;;5015190;28;20026;-79
2022/10/14 08:06:13;;;;;;;4.68;1.70;;;13.80;99.90;;;;;;5019882;28;20454;-79
2022/10/14 08:08:39;;;;;;;2.40;1.60;;;13.80;99.90;;;;;;5010430;28;20022;-76
2022/10/14 08:11:08;;;;;;;3.47;1.60;;;13.80;99.90;;;;;;5020710;28;20028;-75
2022/10/14 08:13:34;;;;;;;3.75;1.52;;;14.00;99.90;;;;;;5029228;28;20030;-75
2022/10/14 08:16:00;;;;;;;4.00;1.38;;;14.10;99.90;;;;;;5029245;28;20393;-76
2022/10/14 08:18:26;;;;;;;3.05;1.50;;;14.20;99.90;;;;;;5029446;28;20159;-76
2022/10/14 08:20:52;;;;;;;4.47;1.30;;;14.30;99.90;;;;;;5029487;28;20030;-76
2022/10/14 08:23:17;;;;;;;3.75;1.30;;;14.40;99.90;;;;;;5019422;28;20037;-76
2022/10/14 08:25:44;;;;;;;4.10;1.92;;;14.50;99.90;;;;;;5028201;28;20144;-76
2022/10/14 08:28:09;;;;;;;4.82;1.50;;;14.70;99.90;;;;;;5028369;28;20034;-78
2022/10/14 08:30:35;;;;;;;2.28;1.40;;;14.80;99.90;;;;;;5028994;28;20026;-79
2022/10/14 08:33:00;;;;;;;4.50;1.52;;;14.90;99.90;;;;;;5026484;28;20032;-76
2022/10/14 08:35:26;;;;;;;3.40;1.48;;;15.00;99.90;;;;;;5030923;28;20036;-76
2022/10/14 08:37:59;;;;;;;3.47;1.20;;;15.30;99.90;;;;;;5033008;28;20067;-76
2022/10/14 08:40:28;;;;;;;4.03;1.50;;;15.40;99.90;;;;;;5033243;28;20018;-76
2022/10/14 08:43:23;;;;;;;4.28;1.50;;;15.50;99.90;;;;;;5033216;28;20029;-76
2022/10/14 08:46:01;;;;;;;5.03;1.40;;;15.70;99.90;;;;;;5017138;28;20052;-77
2022/10/14 08:48:31;;;;;;;3.80;1.13;;;15.80;99.90;;;;;;5026837;28;20276;-77
2022/10/14 08:51:08;;;;;;;2.92;1.50;;;15.90;99.90;;;;;;5028374;28;20096;-81
2022/10/14 08:53:55;;;;;;;3.08;1.27;;;16.10;99.90;;;;;;5024834;28;20377;-77
2022/10/14 08:56:23;;;;;;;2.58;1.15;;;16.30;99.90;;;;;;5033223;28;20377;-77
2022/10/14 08:58:53;;;;;;;1.65;1.17;;;16.60;99.90;;;;;;5031303;28;20132;-77
2022/10/14 09:01:21;;;;;;;3.13;1.08;;;16.70;99.90;;;;;;5027362;28;20045;-77
2022/10/14 09:03:47;;;;;;;1.63;1.17;;;16.80;99.90;;;;;;5033291;28;20026;-77
2022/10/14 09:06:24;;;;;;;1.67;1.10;;;16.80;99.90;;;;;;5033293;28;20359;-77
2022/10/14 09:08:54;;;;;;;3.22;1.30;;;16.90;99.90;;;;;;5019230;28;20014;-77
2022/10/14 09:11:24;;;;;;;1.63;0.95;;;16.90;99.90;;;;;;5033399;28;20022;-77
2022/10/14 09:13:56;;;;;;;2.28;1.27;;;16.90;99.90;;;;;;5033052;28;20025;-77
2022/10/14 09:16:26;;;;;;;1.92;1.20;;;16.80;99.90;;;;;;5032775;28;20037;-77
2022/10/14 09:18:58;;;;;;;4.38;1.80;;;16.90;99.90;;;;;;5033110;28;20063;-77
2022/10/14 09:21:26;;;;;;;1.98;1.40;;;17.00;99.90;;;;;;5032561;28;20013;-77
2022/10/14 09:24:01;;;;;;;2.20;1.30;;;17.00;99.90;;;;;;5018617;28;20030;-77
2022/10/14 09:26:35;;;;;;;;;;;17.00;99.90;;;;;;5031760;28;20070;-77
2022/10/14 09:29:01;;;;;;;2.42;1.13;;;17.00;99.90;;;;;;5029678;28;19920;-77
2022/10/14 09:31:26;;;;;;;3.20;1.10;;;17.20;99.90;;;;;;5016038;28;20109;-77
2022/10/14 09:33:52;;;;;;;1.85;0.90;;;17.20;99.90;;;;;;5021377;28;20513;-77
2022/10/14 09:36:20;;;;;;;1.77;0.80;;;17.50;99.90;;;;;;5032186;28;20033;-77
2022/10/14 09:38:51;;;;;;;1.55;0.88;;;17.60;99.90;;;;;;5029341;28;20038;-75
2022/10/14 09:41:21;;;;;;;3.38;1.70;;;17.70;99.90;;;;;;5031748;28;20840;-75
2022/10/14 09:44:12;;;;;;;3.83;1.30;;;17.70;99.90;;;;;;5031673;28;20148;-75
2022/10/14 09:46:38;;;;;;;3.55;1.00;;;17.70;99.90;;;;;;5027203;28;20025;-75
2022/10/14 09:49:04;;;;;;;2.58;1.10;;;17.90;99.90;;;;;;5031462;28;20032;-75
2022/10/14 09:51:32;;;;;;;1.40;0.98;;;17.90;99.90;;;;;;5024788;28;20017;-75
2022/10/14 09:54:03;;;;;;;1.50;0.90;;;18.20;99.90;;;;;;5031564;28;20029;-75
2022/10/14 09:56:40;;;;;;;3.05;0.93;;;18.30;99.90;;;;;;5030816;28;20486;-75
2022/10/14 09:59:16;;;;;;;4.43;1.05;;;18.30;99.90;;;;;;5031461;28;20528;-75
2022/10/14 10:02:08;;;;;;;3.53;0.98;;;18.30;99.90;;;;;;5030421;28;20040;-74
2022/10/14 10:04:46;;;;;;;2.08;0.90;;;18.30;99.90;;;;;;5028744;28;20441;-75
2022/10/14 10:07:32;;;;;;;4.35;1.00;;;18.30;99.90;;;;;;5031730;28;20025;-75
2022/10/14 10:10:17;;;;;;;2.45;0.90;;;18.40;99.90;;;;;;5031117;28;20058;-75
2022/10/14 10:12:45;;;;;;;4.15;1.00;;;18.40;99.90;;;;;;5031674;28;20018;-75
2022/10/14 10:15:17;;;;;;;1.67;0.80;;;18.40;99.90;;;;;;5027891;28;20495;-74
2022/10/14 10:17:43;;;;;;;2.30;1.10;;;18.60;99.90;;;;;;5023845;28;20033;-75
2022/10/14 10:20:26;;;;;;;1.65;0.85;;;18.60;99.90;;;;;;5014567;28;20034;-74
2022/10/14 10:22:56;;;;;;;1.15;0.75;;;18.70;99.90;;;;;;5017375;28;20037;-74
2022/10/14 10:25:26;;;;;;;3.85;0.80;;;18.80;99.90;;;;;;5025576;28;20026;-74
2022/10/14 10:27:55;;;;;;;1.73;0.80;;;18.80;99.90;;;;;;5026301;28;20018;-74
2022/10/14 10:30:32;;;;;;;0.95;0.80;;;18.90;99.90;;;;;;5023323;28;20104;-75
2022/10/14 10:33:20;;;;;;;2.30;0.80;;;19.00;99.90;;;;;;5017230;28;20041;-75
2022/10/14 10:36:01;;;;;;;2.78;1.30;;;19.20;99.90;;;;;;5027069;28;20029;-75
2022/10/14 10:39:16;;;;;;;2.20;0.90;;;19.50;99.90;;;;;;5029232;28;20060;-80
2022/10/14 10:41:41;;;;;;;1.88;0.90;;;19.50;99.90;;;;;;5017522;28;20037;-79
2022/10/14 10:44:52;;;;;;;3.00;1.20;;;19.40;99.90;;;;;;5030665;28;20040;-80
2022/10/14 10:47:30;;;;;;;4.40;1.00;;;19.30;99.90;;;;;;5020192;28;20034;-79
2022/10/14 10:50:11;;;;;;;3.60;1.02;;;19.40;99.90;;;;;;5029653;28;20164;-79
2022/10/14 10:52:36;;;;;;;3.28;1.17;;;19.70;99.90;;;;;;5024194;28;20103;-79
2022/10/14 10:55:15;;;;;;;3.45;1.02;;;19.80;99.90;;;;;;5013015;28;20132;-79
2022/10/14 10:57:55;;;;;;;7.13;1.52;;;19.80;99.90;;;;;;5010673;28;20030;-79
2022/10/14 11:00:22;;;;;;;1.42;0.93;;;19.90;99.90;;;;;;5010653;28;20478;-79
2022/10/14 11:03:12;;;;;;;2.53;1.10;;;20.00;99.90;;;;;;5010757;28;20034;-79
2022/10/14 11:05:55;;;;;;;3.20;1.30;;;20.10;99.90;;;;;;5010447;28;20034;-79
2022/10/14 11:14:21;;;;;;;1.95;1.08;;;20.20;99.90;;;;;;5013673;28;20124;-78
2022/10/14 11:17:01;;;;;;;2.25;1.10;;;20.40;99.90;;;;;;5011105;28;20121;-80
2022/10/14 11:19:49;;;;;;;3.33;1.27;;;20.30;99.90;;;;;;5009971;28;20030;-79
2022/10/14 11:22:42;;;;;;;5.00;1.88;;;20.10;99.90;;;;;;5010280;28;20116;-79
2022/10/14 11:25:43;;;;;;;2.42;1.05;;;20.20;99.90;;;;;;5018973;28;20386;-79
2022/10/14 11:28:08;;;;;;;5.68;1.08;;;20.10;99.90;;;;;;5024660;28;20040;-79
2022/10/14 11:30:56;;;;;;;4.00;1.65;;;19.80;99.90;;;;;;5024263;28;20025;-79
2022/10/14 11:34:06;;;;;;;2.28;1.13;;;19.60;99.90;;;;;;5024455;28;20033;-79
2022/10/14 11:37:07;;;;;;;2.25;1.00;;;19.30;99.90;;;;;;5023878;28;20029;-79
2022/10/14 11:39:54;;;;;;;2.42;1.00;;;19.30;99.90;;;;;;5023709;28;20033;-79
2022/10/14 11:42:29;;;;;;;1.35;0.80;;;19.40;99.90;;;;;;5022863;28;20041;-79
2022/10/14 11:45:13;;;;;;;2.50;0.95;;;19.30;99.90;;;;;;5021157;28;20422;-79
2022/10/14 11:47:39;;;;;;;1.83;0.90;;;19.30;99.90;;;;;;5023636;28;20065;-79
2022/10/14 11:50:20;;;;;;;4.35;1.10;;;19.40;99.90;;;;;;5022475;28;20033;-79
2022/10/14 11:52:57;;;;;;;1.73;1.00;;;19.50;99.90;;;;;;5023151;28;20045;-79
2022/10/14 11:55:27;;;;;;;4.07;1.00;;;19.50;99.90;;;;;;5021424;28;20025;-79
2022/10/14 11:57:57;;;;;;;2.70;1.13;;;19.70;99.90;;;;;;5021612;28;20030;-79
2022/10/14 12:00:42;;;;;;;7.38;1.52;;;19.60;99.90;;;;;;5022317;28;20037;-79
2022/10/14 12:03:20;;;;;;;;;;;19.70;99.90;;;;;;5021589;28;20388;-79
2022/10/14 12:06:02;;;;;;;3.00;1.10;;;19.60;99.90;;;;;;5022852;28;20006;-79
2022/10/14 12:08:31;;;;;;;1.88;1.10;;;19.60;99.90;;;;;;5021452;28;20478;-79
2022/10/14 12:11:26;;;;;;;3.80;1.35;;;19.60;99.90;;;;;;5024718;28;20160;-79
2022/10/14 12:13:58;;;;;;;2.40;1.10;;;19.60;99.90;;;;;;5028381;28;20514;-79
2022/10/14 12:16:24;;;;;;;3.25;1.45;;;19.50;99.90;;;;;;5025299;28;20111;-79
2022/10/14 12:18:55;;;;;;;4.03;1.20;;;19.50;99.90;;;;;;5024846;28;20033;-79
2022/10/14 12:21:45;;;;;;;2.45;1.10;;;19.40;99.90;;;;;;5028301;28;20034;-80
2022/10/14 12:24:19;;;;;;;3.58;1.20;;;19.30;99.90;;;;;;5025938;28;20053;-79
2022/10/14 12:27:00;;;;;;;2.08;1.10;;;19.10;99.90;;;;;;5028411;28;20041;-79
2022/10/14 12:29:40;;;;;;;4.20;1.02;;;19.10;99.90;;;;;;5026114;28;20130;-79
2022/10/14 12:32:23;;;;;;;4.40;1.30;;;18.90;99.90;;;;;;5022658;28;20446;-79
2022/10/14 12:34:56;;;;;;;3.13;1.00;;;18.90;99.90;;;;;;5029190;28;20512;-78
2022/10/14 12:37:33;;;;;;;1.38;0.85;;;18.80;99.90;;;;;;5032596;28;20071;-74
2022/10/14 12:40:01;;;;;;;2.30;1.10;;;18.70;99.90;;;;;;5031825;28;20100;-74
2022/10/14 12:42:42;;;;;;;2.90;1.17;;;18.60;99.90;;;;;;5032540;28;20037;-74
2022/10/14 12:45:22;;;;;;;1.70;1.20;;;18.50;99.90;;;;;;5032316;28;20037;-74
2022/10/14 12:48:01;;;;;;;4.40;1.25;;;18.50;99.90;;;;;;5032092;28;20350;-74
2022/10/14 12:50:33;;;;;;;1.33;0.93;;;18.40;99.90;;;;;;5032527;28;20010;-74
2022/10/14 12:53:03;;;;;;;3.03;1.30;;;18.40;99.90;;;;;;5032514;28;20095;-74
2022/10/14 12:55:32;;;;;;;4.07;1.20;;;18.30;99.90;;;;;;5032802;28;20078;-69
2022/10/14 12:58:03;;;;;;;3.25;1.10;;;18.20;99.90;;;;;;5033475;28;20087;-79
2022/10/14 13:00:34;;;;;;;2.45;1.00;;;18.10;99.90;;;;;;5032272;28;20044;-79
2022/10/14 13:03:02;;;;;;;4.88;1.55;;;18.00;99.90;;;;;;5031386;28;20029;-79
2022/10/14 13:05:41;;;;;;;4.47;1.33;;;17.90;99.90;;;;;;5032176;28;20025;-78
2022/10/14 13:08:18;;;;;;;3.90;1.10;;;17.90;99.90;;;;;;5033552;28;20124;-77
2022/10/14 13:11:01;;;;;;;3.13;1.58;;;17.90;99.90;;;;;;5029682;28;20059;-77
2022/10/14 13:13:40;;;;;;;5.72;1.27;;;17.80;99.90;;;;;;5027779;28;20311;-77
2022/10/14 13:16:07;;;;;;;3.20;1.08;;;17.80;99.90;;;;;;5029761;28;20049;-77